sensor_id;sensor_type;location;lat;lon;timestamp;temperature;humidity
38265;DHT22;24062;47.480;8.768;2023-09-19T00:02:22;25.30;64.20
38265;DHT22;24062;47.480;8.768;2023-09-19T00:04:49;25.30;64.30
38265;DHT22;24062;47.480;8.768;2023-09-19T00:07:17;25.30;64.30
38265;DHT22;24062;47.480;8.768;2023-09-19T00:09:44;25.30;64.30
38265;DHT22;24062;47.480;8.768;2023-09-19T00:12:11;25.30;64.40
38265;DHT22;24062;47.480;8.768;2023-09-19T00:14:40;25.20;64.20
38265;DHT22;24062;47.480;8.768;2023-09-19T00:17:07;25.20;64.20
38265;DHT22;24062;47.480;8.768;2023-09-19T00:19:35;25.20;64.20
38265;DHT22;24062;47.480;8.768;2023-09-19T00:22:03;25.20;64.20
38265;DHT22;24062;47.480;8.768;2023-09-19T00:24:30;25.20;64.30
38265;DHT22;24062;47.480;8.768;2023-09-19T00:26:57;25.20;64.30
38265;DHT22;24062;47.480;8.768;2023-09-19T00:29:25;25.20;64.30
38265;DHT22;24062;47.480;8.768;2023-09-19T00:31:56;25.20;64.40
38265;DHT22;24062;47.480;8.768;2023-09-19T00:34:24;25.20;64.40
38265;DHT22;24062;47.480;8.768;2023-09-19T00:36:51;25.20;64.40
38265;DHT22;24062;47.480;8.768;2023-09-19T00:39:20;25.20;64.40
38265;DHT22;24062;47.480;8.768;2023-09-19T00:41:47;25.10;64.40
38265;DHT22;24062;47.480;8.768;2023-09-19T00:44:15;25.20;64.40
38265;DHT22;24062;47.480;8.768;2023-09-19T00:46:43;25.20;64.50
38265;DHT22;24062;47.480;8.768;2023-09-19T00:49:14;25.20;64.40
38265;DHT22;24062;47.480;8.768;2023-09-19T00:51:41;25.10;64.40
38265;DHT22;24062;47.480;8.768;2023-09-19T00:54:13;25.10;64.40
38265;DHT22;24062;47.480;8.768;2023-09-19T00:56:44;25.10;64.40
38265;DHT22;24062;47.480;8.768;2023-09-19T00:59:11;25.10;64.40
38265;DHT22;24062;47.480;8.768;2023-09-19T01:01:39;25.10;64.40
38265;DHT22;24062;47.480;8.768;2023-09-19T01:04:06;25.10;64.40
38265;DHT22;24062;47.480;8.768;2023-09-19T01:06:36;25.10;64.40
38265;DHT22;24062;47.480;8.768;2023-09-19T01:09:05;25.10;64.40
38265;DHT22;24062;47.480;8.768;2023-09-19T01:11:37;25.10;64.40
38265;DHT22;24062;47.480;8.768;2023-09-19T01:14:15;25.10;64.40
38265;DHT22;24062;47.480;8.768;2023-09-19T01:16:53;25.10;64.50
38265;DHT22;24062;47.480;8.768;2023-09-19T01:19:41;25.10;64.50
38265;DHT22;24062;47.480;8.768;2023-09-19T01:22:20;25.10;64.50
38265;DHT22;24062;47.480;8.768;2023-09-19T01:28:06;25.10;64.50
38265;DHT22;24062;47.480;8.768;2023-09-19T01:30:43;25.00;64.50
38265;DHT22;24062;47.480;8.768;2023-09-19T01:33:11;25.10;64.50
38265;DHT22;24062;47.480;8.768;2023-09-19T01:35:38;25.10;64.60
38265;DHT22;24062;47.480;8.768;2023-09-19T01:38:05;25.10;64.60
38265;DHT22;24062;47.480;8.768;2023-09-19T01:40:41;25.00;64.50
38265;DHT22;24062;47.480;8.768;2023-09-19T01:43:12;25.10;64.60
38265;DHT22;24062;47.480;8.768;2023-09-19T01:45:49;25.00;64.50
38265;DHT22;24062;47.480;8.768;2023-09-19T01:48:22;25.00;64.50
38265;DHT22;24062;47.480;8.768;2023-09-19T01:50:57;25.00;64.50
38265;DHT22;24062;47.480;8.768;2023-09-19T01:53:27;25.00;64.50
38265;DHT22;24062;47.480;8.768;2023-09-19T01:55:57;25.00;64.50
38265;DHT22;24062;47.480;8.768;2023-09-19T01:58:29;25.00;64.50
38265;DHT22;24062;47.480;8.768;2023-09-19T02:00:59;25.00;64.50
38265;DHT22;24062;47.480;8.768;2023-09-19T02:03:27;25.00;64.50
38265;DHT22;24062;47.480;8.768;2023-09-19T02:05:54;25.00;64.50
38265;DHT22;24062;47.480;8.768;2023-09-19T02:08:22;25.00;64.50
38265;DHT22;24062;47.480;8.768;2023-09-19T02:10:50;25.00;64.50
38265;DHT22;24062;47.480;8.768;2023-09-19T02:13:19;25.00;64.50
38265;DHT22;24062;47.480;8.768;2023-09-19T02:15:46;24.90;64.50
38265;DHT22;24062;47.480;8.768;2023-09-19T02:18:15;24.90;64.50
38265;DHT22;24062;47.480;8.768;2023-09-19T02:20:42;25.00;64.60
38265;DHT22;24062;47.480;8.768;2023-09-19T02:23:10;25.00;64.60
38265;DHT22;24062;47.480;8.768;2023-09-19T02:25:38;25.00;64.60
38265;DHT22;24062;47.480;8.768;2023-09-19T02:28:06;24.90;64.60
38265;DHT22;24062;47.480;8.768;2023-09-19T02:30:33;25.00;64.60
38265;DHT22;24062;47.480;8.768;2023-09-19T02:33:01;24.90;64.60
38265;DHT22;24062;47.480;8.768;2023-09-19T02:35:32;25.00;64.60
38265;DHT22;24062;47.480;8.768;2023-09-19T02:38:01;24.90;64.60
38265;DHT22;24062;47.480;8.768;2023-09-19T02:40:31;24.90;64.60
38265;DHT22;24062;47.480;8.768;2023-09-19T02:43:01;24.90;64.60
38265;DHT22;24062;47.480;8.768;2023-09-19T02:45:28;24.90;64.60
38265;DHT22;24062;47.480;8.768;2023-09-19T02:47:56;24.90;64.60
38265;DHT22;24062;47.480;8.768;2023-09-19T02:50:24;24.90;64.60
38265;DHT22;24062;47.480;8.768;2023-09-19T02:52:52;24.90;64.60
38265;DHT22;24062;47.480;8.768;2023-09-19T02:55:20;24.90;64.60
38265;DHT22;24062;47.480;8.768;2023-09-19T02:57:47;24.90;64.60
38265;DHT22;24062;47.480;8.768;2023-09-19T03:00:16;24.90;64.60
38265;DHT22;24062;47.480;8.768;2023-09-19T03:02:47;24.90;64.60
38265;DHT22;24062;47.480;8.768;2023-09-19T03:05:14;24.90;64.60
38265;DHT22;24062;47.480;8.768;2023-09-19T03:07:41;24.90;64.70
38265;DHT22;24062;47.480;8.768;2023-09-19T03:10:10;24.90;64.70
38265;DHT22;24062;47.480;8.768;2023-09-19T03:12:37;24.90;64.70
38265;DHT22;24062;47.480;8.768;2023-09-19T03:15:06;24.90;64.60
38265;DHT22;24062;47.480;8.768;2023-09-19T03:17:34;24.90;64.60
38265;DHT22;24062;47.480;8.768;2023-09-19T03:20:01;24.90;64.70
38265;DHT22;24062;47.480;8.768;2023-09-19T03:22:29;24.90;64.70
38265;DHT22;24062;47.480;8.768;2023-09-19T03:24:56;24.90;64.70
38265;DHT22;24062;47.480;8.768;2023-09-19T03:27:25;24.90;64.60
38265;DHT22;24062;47.480;8.768;2023-09-19T03:29:52;24.90;64.60
38265;DHT22;24062;47.480;8.768;2023-09-19T03:32:19;24.90;64.60
38265;DHT22;24062;47.480;8.768;2023-09-19T03:34:46;24.90;64.60
38265;DHT22;24062;47.480;8.768;2023-09-19T03:37:14;24.90;64.70
38265;DHT22;24062;47.480;8.768;2023-09-19T03:39:41;24.90;64.60
38265;DHT22;24062;47.480;8.768;2023-09-19T03:42:08;24.90;64.60
38265;DHT22;24062;47.480;8.768;2023-09-19T03:44:36;24.90;64.60
38265;DHT22;24062;47.480;8.768;2023-09-19T03:47:04;24.90;64.60
38265;DHT22;24062;47.480;8.768;2023-09-19T03:49:32;24.90;64.60
38265;DHT22;24062;47.480;8.768;2023-09-19T03:51:59;24.90;64.60
38265;DHT22;24062;47.480;8.768;2023-09-19T03:54:26;24.90;64.60
38265;DHT22;24062;47.480;8.768;2023-09-19T03:56:53;24.90;64.60
38265;DHT22;24062;47.480;8.768;2023-09-19T03:59:20;24.90;64.50
38265;DHT22;24062;47.480;8.768;2023-09-19T04:01:49;24.90;64.50
38265;DHT22;24062;47.480;8.768;2023-09-19T04:04:21;24.90;64.60
38265;DHT22;24062;47.480;8.768;2023-09-19T04:06:50;24.90;64.50
38265;DHT22;24062;47.480;8.768;2023-09-19T04:09:17;24.90;64.60
38265;DHT22;24062;47.480;8.768;2023-09-19T04:11:44;24.90;64.50
38265;DHT22;24062;47.480;8.768;2023-09-19T04:14:11;24.90;64.60
38265;DHT22;24062;47.480;8.768;2023-09-19T04:16:38;24.90;65.30
38265;DHT22;24062;47.480;8.768;2023-09-19T04:19:06;24.90;64.50
38265;DHT22;24062;47.480;8.768;2023-09-19T04:21:33;24.90;64.60
38265;DHT22;24062;47.480;8.768;2023-09-19T04:24:00;24.90;64.60
38265;DHT22;24062;47.480;8.768;2023-09-19T04:26:28;24.90;64.60
38265;DHT22;24062;47.480;8.768;2023-09-19T04:28:55;24.90;64.70
38265;DHT22;24062;47.480;8.768;2023-09-19T04:31:22;24.90;64.80
38265;DHT22;24062;47.480;8.768;2023-09-19T04:33:49;24.90;64.80
38265;DHT22;24062;47.480;8.768;2023-09-19T04:36:18;24.90;64.80
38265;DHT22;24062;47.480;8.768;2023-09-19T04:38:47;24.90;64.90
38265;DHT22;24062;47.480;8.768;2023-09-19T04:41:15;24.90;64.80
38265;DHT22;24062;47.480;8.768;2023-09-19T04:43:42;24.80;64.80
38265;DHT22;24062;47.480;8.768;2023-09-19T04:46:09;24.90;64.90
38265;DHT22;24062;47.480;8.768;2023-09-19T04:48:39;24.90;64.90
38265;DHT22;24062;47.480;8.768;2023-09-19T04:51:07;24.90;64.80
38265;DHT22;24062;47.480;8.768;2023-09-19T04:53:35;24.90;64.80
38265;DHT22;24062;47.480;8.768;2023-09-19T04:56:02;24.90;64.80
38265;DHT22;24062;47.480;8.768;2023-09-19T04:58:33;24.90;64.80
38265;DHT22;24062;47.480;8.768;2023-09-19T05:01:00;24.90;64.80
38265;DHT22;24062;47.480;8.768;2023-09-19T05:03:29;24.90;64.70
38265;DHT22;24062;47.480;8.768;2023-09-19T05:05:57;24.90;64.70
38265;DHT22;24062;47.480;8.768;2023-09-19T05:08:24;24.90;64.70
38265;DHT22;24062;47.480;8.768;2023-09-19T05:10:52;24.90;64.80
38265;DHT22;24062;47.480;8.768;2023-09-19T05:13:21;24.90;64.60
38265;DHT22;24062;47.480;8.768;2023-09-19T05:15:48;24.90;64.60
38265;DHT22;24062;47.480;8.768;2023-09-19T05:18:16;24.90;64.60
38265;DHT22;24062;47.480;8.768;2023-09-19T05:20:42;24.90;64.60
38265;DHT22;24062;47.480;8.768;2023-09-19T05:23:09;24.90;64.60
38265;DHT22;24062;47.480;8.768;2023-09-19T05:25:38;24.90;64.60
38265;DHT22;24062;47.480;8.768;2023-09-19T05:28:07;24.90;64.60
38265;DHT22;24062;47.480;8.768;2023-09-19T05:30:35;24.90;64.60
38265;DHT22;24062;47.480;8.768;2023-09-19T05:33:04;24.90;64.60
38265;DHT22;24062;47.480;8.768;2023-09-19T05:35:31;24.90;64.60
38265;DHT22;24062;47.480;8.768;2023-09-19T05:37:58;24.90;64.60
38265;DHT22;24062;47.480;8.768;2023-09-19T05:40:26;24.90;64.60
38265;DHT22;24062;47.480;8.768;2023-09-19T05:42:53;24.90;64.60
38265;DHT22;24062;47.480;8.768;2023-09-19T05:45:21;25.00;65.50
38265;DHT22;24062;47.480;8.768;2023-09-19T05:47:48;24.90;64.60
38265;DHT22;24062;47.480;8.768;2023-09-19T05:50:16;24.90;64.60
38265;DHT22;24062;47.480;8.768;2023-09-19T05:52:51;24.90;64.60
38265;DHT22;24062;47.480;8.768;2023-09-19T05:55:19;24.90;64.60
38265;DHT22;24062;47.480;8.768;2023-09-19T05:57:49;24.90;64.60
38265;DHT22;24062;47.480;8.768;2023-09-19T06:00:17;24.90;64.50
38265;DHT22;24062;47.480;8.768;2023-09-19T06:02:50;24.90;64.50
38265;DHT22;24062;47.480;8.768;2023-09-19T06:05:17;25.00;64.50
38265;DHT22;24062;47.480;8.768;2023-09-19T06:07:45;25.00;64.50
38265;DHT22;24062;47.480;8.768;2023-09-19T06:10:12;25.00;64.50
38265;DHT22;24062;47.480;8.768;2023-09-19T06:12:40;25.00;64.40
38265;DHT22;24062;47.480;8.768;2023-09-19T06:15:10;25.00;64.30
38265;DHT22;24062;47.480;8.768;2023-09-19T06:17:41;25.10;64.30
38265;DHT22;24062;47.480;8.768;2023-09-19T06:20:10;25.10;64.20
38265;DHT22;24062;47.480;8.768;2023-09-19T06:22:40;25.10;64.10
38265;DHT22;24062;47.480;8.768;2023-09-19T06:25:08;25.10;64.20
38265;DHT22;24062;47.480;8.768;2023-09-19T06:27:37;25.00;64.20
38265;DHT22;24062;47.480;8.768;2023-09-19T06:30:06;25.00;64.20
38265;DHT22;24062;47.480;8.768;2023-09-19T06:32:33;25.10;64.20
38265;DHT22;24062;47.480;8.768;2023-09-19T06:35:00;25.10;64.10
38265;DHT22;24062;47.480;8.768;2023-09-19T06:37:30;25.10;64.10
38265;DHT22;24062;47.480;8.768;2023-09-19T06:39:57;25.20;63.90
38265;DHT22;24062;47.480;8.768;2023-09-19T06:42:24;25.20;63.70
38265;DHT22;24062;47.480;8.768;2023-09-19T06:44:51;25.30;63.60
38265;DHT22;24062;47.480;8.768;2023-09-19T06:47:18;25.40;63.40
38265;DHT22;24062;47.480;8.768;2023-09-19T06:49:46;25.50;63.10
38265;DHT22;24062;47.480;8.768;2023-09-19T06:52:13;25.60;62.90
38265;DHT22;24062;47.480;8.768;2023-09-19T06:54:42;25.60;62.70
38265;DHT22;24062;47.480;8.768;2023-09-19T06:57:09;25.60;62.70
38265;DHT22;24062;47.480;8.768;2023-09-19T06:59:36;25.70;62.60
38265;DHT22;24062;47.480;8.768;2023-09-19T07:02:04;25.80;62.40
38265;DHT22;24062;47.480;8.768;2023-09-19T07:04:32;25.90;62.10
38265;DHT22;24062;47.480;8.768;2023-09-19T07:06:59;25.90;61.80
38265;DHT22;24062;47.480;8.768;2023-09-19T07:09:26;25.90;61.80
38265;DHT22;24062;47.480;8.768;2023-09-19T07:11:55;25.90;61.80
38265;DHT22;24062;47.480;8.768;2023-09-19T07:14:22;25.80;61.80
38265;DHT22;24062;47.480;8.768;2023-09-19T07:16:49;25.70;62.00
38265;DHT22;24062;47.480;8.768;2023-09-19T07:19:17;25.60;62.10
38265;DHT22;24062;47.480;8.768;2023-09-19T07:21:44;25.60;62.10
38265;DHT22;24062;47.480;8.768;2023-09-19T07:24:13;25.70;62.10
38265;DHT22;24062;47.480;8.768;2023-09-19T07:26:40;25.70;62.80
38265;DHT22;24062;47.480;8.768;2023-09-19T07:29:08;25.70;62.00
38265;DHT22;24062;47.480;8.768;2023-09-19T07:31:35;25.70;62.10
38265;DHT22;24062;47.480;8.768;2023-09-19T07:34:02;25.70;62.10
38265;DHT22;24062;47.480;8.768;2023-09-19T07:36:30;25.70;62.00
38265;DHT22;24062;47.480;8.768;2023-09-19T07:38:58;25.80;61.90
38265;DHT22;24062;47.480;8.768;2023-09-19T07:41:25;25.80;61.70
38265;DHT22;24062;47.480;8.768;2023-09-19T07:43:52;25.90;61.40
38265;DHT22;24062;47.480;8.768;2023-09-19T07:46:21;25.90;61.40
38265;DHT22;24062;47.480;8.768;2023-09-19T07:48:50;25.80;61.50
38265;DHT22;24062;47.480;8.768;2023-09-19T07:51:17;25.80;61.60
38265;DHT22;24062;47.480;8.768;2023-09-19T07:53:44;25.80;61.60
38265;DHT22;24062;47.480;8.768;2023-09-19T07:56:11;25.90;61.50
38265;DHT22;24062;47.480;8.768;2023-09-19T07:58:40;26.00;62.10
38265;DHT22;24062;47.480;8.768;2023-09-19T08:01:09;26.00;61.20
38265;DHT22;24062;47.480;8.768;2023-09-19T08:03:39;26.00;61.20
38265;DHT22;24062;47.480;8.768;2023-09-19T08:06:07;26.10;60.90
38265;DHT22;24062;47.480;8.768;2023-09-19T08:08:35;26.10;61.10
38265;DHT22;24062;47.480;8.768;2023-09-19T08:11:03;26.00;61.30
38265;DHT22;24062;47.480;8.768;2023-09-19T08:13:36;25.90;61.60
38265;DHT22;24062;47.480;8.768;2023-09-19T08:16:03;25.80;61.90
38265;DHT22;24062;47.480;8.768;2023-09-19T08:18:31;25.70;62.20
38265;DHT22;24062;47.480;8.768;2023-09-19T08:21:00;25.70;62.50
38265;DHT22;24062;47.480;8.768;2023-09-19T08:23:27;25.60;62.60
38265;DHT22;24062;47.480;8.768;2023-09-19T08:25:56;25.60;62.70
38265;DHT22;24062;47.480;8.768;2023-09-19T08:28:23;25.60;62.70
38265;DHT22;24062;47.480;8.768;2023-09-19T08:30:50;25.60;62.80
38265;DHT22;24062;47.480;8.768;2023-09-19T08:33:18;25.60;62.70
38265;DHT22;24062;47.480;8.768;2023-09-19T08:35:46;25.60;62.80
38265;DHT22;24062;47.480;8.768;2023-09-19T08:38:14;25.60;62.80
38265;DHT22;24062;47.480;8.768;2023-09-19T08:40:42;25.50;62.80
38265;DHT22;24062;47.480;8.768;2023-09-19T08:43:09;25.50;62.70
38265;DHT22;24062;47.480;8.768;2023-09-19T08:45:36;25.50;62.80
38265;DHT22;24062;47.480;8.768;2023-09-19T08:48:17;25.50;62.90
38265;DHT22;24062;47.480;8.768;2023-09-19T08:50:49;25.50;62.90
38265;DHT22;24062;47.480;8.768;2023-09-19T08:53:27;25.40;62.80
38265;DHT22;24062;47.480;8.768;2023-09-19T08:55:59;25.50;62.80
38265;DHT22;24062;47.480;8.768;2023-09-19T08:58:31;25.50;62.70
38265;DHT22;24062;47.480;8.768;2023-09-19T09:01:00;25.50;62.70
38265;DHT22;24062;47.480;8.768;2023-09-19T09:03:32;25.60;62.60
38265;DHT22;24062;47.480;8.768;2023-09-19T09:06:01;25.60;62.60
38265;DHT22;24062;47.480;8.768;2023-09-19T09:08:31;25.60;62.40
38265;DHT22;24062;47.480;8.768;2023-09-19T09:10:59;25.60;62.40
38265;DHT22;24062;47.480;8.768;2023-09-19T09:13:26;25.60;62.30
38265;DHT22;24062;47.480;8.768;2023-09-19T09:15:53;25.70;62.30
38265;DHT22;24062;47.480;8.768;2023-09-19T09:18:20;25.70;62.20
38265;DHT22;24062;47.480;8.768;2023-09-19T09:20:48;25.70;62.30
38265;DHT22;24062;47.480;8.768;2023-09-19T09:23:15;25.70;62.30
38265;DHT22;24062;47.480;8.768;2023-09-19T09:25:50;25.60;62.20
38265;DHT22;24062;47.480;8.768;2023-09-19T09:28:21;25.60;62.20
38265;DHT22;24062;47.480;8.768;2023-09-19T09:30:48;25.70;62.20
38265;DHT22;24062;47.480;8.768;2023-09-19T09:33:16;25.70;62.20
38265;DHT22;24062;47.480;8.768;2023-09-19T09:35:51;25.70;62.10
38265;DHT22;24062;47.480;8.768;2023-09-19T09:38:19;25.70;62.00
38265;DHT22;24062;47.480;8.768;2023-09-19T09:40:49;25.70;61.90
38265;DHT22;24062;47.480;8.768;2023-09-19T09:43:32;25.70;61.80
38265;DHT22;24062;47.480;8.768;2023-09-19T09:46:09;25.80;61.90
38265;DHT22;24062;47.480;8.768;2023-09-19T09:49:00;25.80;61.80
38265;DHT22;24062;47.480;8.768;2023-09-19T09:51:45;25.80;61.70
38265;DHT22;24062;47.480;8.768;2023-09-19T09:54:24;25.80;61.70
38265;DHT22;24062;47.480;8.768;2023-09-19T09:56:58;25.80;61.60
38265;DHT22;24062;47.480;8.768;2023-09-19T09:59:52;25.90;61.50
38265;DHT22;24062;47.480;8.768;2023-09-19T10:02:25;26.00;61.30
38265;DHT22;24062;47.480;8.768;2023-09-19T10:04:55;26.00;61.30
38265;DHT22;24062;47.480;8.768;2023-09-19T10:07:40;25.90;61.30
38265;DHT22;24062;47.480;8.768;2023-09-19T10:10:13;25.90;61.20
38265;DHT22;24062;47.480;8.768;2023-09-19T10:12:47;26.00;61.20
38265;DHT22;24062;47.480;8.768;2023-09-19T10:15:16;26.10;61.10
38265;DHT22;24062;47.480;8.768;2023-09-19T10:17:46;26.20;60.80
38265;DHT22;24062;47.480;8.768;2023-09-19T10:20:15;26.30;60.70
38265;DHT22;24062;47.480;8.768;2023-09-19T10:23:03;26.30;60.60
38265;DHT22;24062;47.480;8.768;2023-09-19T10:25:37;26.20;60.70
38265;DHT22;24062;47.480;8.768;2023-09-19T10:28:06;26.20;60.70
38265;DHT22;24062;47.480;8.768;2023-09-19T10:30:37;26.20;60.60
38265;DHT22;24062;47.480;8.768;2023-09-19T10:33:09;26.40;60.50
38265;DHT22;24062;47.480;8.768;2023-09-19T10:35:38;26.40;60.20
38265;DHT22;24062;47.480;8.768;2023-09-19T10:38:07;26.50;60.00
38265;DHT22;24062;47.480;8.768;2023-09-19T10:40:37;26.50;59.90
38265;DHT22;24062;47.480;8.768;2023-09-19T10:43:12;26.50;59.90
38265;DHT22;24062;47.480;8.768;2023-09-19T10:45:41;26.60;59.90
38265;DHT22;24062;47.480;8.768;2023-09-19T10:48:10;26.60;59.90
38265;DHT22;24062;47.480;8.768;2023-09-19T10:50:44;26.60;59.80
38265;DHT22;24062;47.480;8.768;2023-09-19T10:53:13;26.60;59.80
38265;DHT22;24062;47.480;8.768;2023-09-19T10:55:48;26.60;59.80
38265;DHT22;24062;47.480;8.768;2023-09-19T10:58:26;26.60;59.80
38265;DHT22;24062;47.480;8.768;2023-09-19T11:00:55;26.60;59.90
38265;DHT22;24062;47.480;8.768;2023-09-19T11:03:23;26.50;59.90
38265;DHT22;24062;47.480;8.768;2023-09-19T11:06:03;26.50;60.10
38265;DHT22;24062;47.480;8.768;2023-09-19T11:08:58;26.50;60.20
38265;DHT22;24062;47.480;8.768;2023-09-19T11:11:47;26.40;60.30
38265;DHT22;24062;47.480;8.768;2023-09-19T11:14:30;26.40;60.30
38265;DHT22;24062;47.480;8.768;2023-09-19T11:20:24;26.50;60.30
38265;DHT22;24062;47.480;8.768;2023-09-19T11:23:20;26.50;60.30
38265;DHT22;24062;47.480;8.768;2023-09-19T11:25:52;26.50;60.30
38265;DHT22;24062;47.480;8.768;2023-09-19T11:28:35;26.50;60.20
38265;DHT22;24062;47.480;8.768;2023-09-19T11:34:41;26.70;60.00
38265;DHT22;24062;47.480;8.768;2023-09-19T11:40:36;26.60;59.80
38265;DHT22;24062;47.480;8.768;2023-09-19T11:43:30;26.60;59.90
38265;DHT22;24062;47.480;8.768;2023-09-19T11:46:05;26.70;59.80
38265;DHT22;24062;47.480;8.768;2023-09-19T11:48:33;26.60;59.70
38265;DHT22;24062;47.480;8.768;2023-09-19T11:51:11;26.70;59.70
38265;DHT22;24062;47.480;8.768;2023-09-19T11:53:42;26.70;59.80
38265;DHT22;24062;47.480;8.768;2023-09-19T11:56:10;26.70;59.80
38265;DHT22;24062;47.480;8.768;2023-09-19T11:58:37;26.70;59.70
38265;DHT22;24062;47.480;8.768;2023-09-19T12:01:05;26.70;59.80
38265;DHT22;24062;47.480;8.768;2023-09-19T12:03:42;26.70;59.80
38265;DHT22;24062;47.480;8.768;2023-09-19T12:06:13;26.70;59.80
38265;DHT22;24062;47.480;8.768;2023-09-19T12:08:41;26.70;59.90
38265;DHT22;24062;47.480;8.768;2023-09-19T12:11:13;26.60;59.90
38265;DHT22;24062;47.480;8.768;2023-09-19T12:13:42;26.60;59.90
38265;DHT22;24062;47.480;8.768;2023-09-19T12:16:14;26.60;60.00
38265;DHT22;24062;47.480;8.768;2023-09-19T12:18:42;26.60;60.00
38265;DHT22;24062;47.480;8.768;2023-09-19T12:21:23;26.70;60.00
38265;DHT22;24062;47.480;8.768;2023-09-19T12:23:58;26.70;59.90
38265;DHT22;24062;47.480;8.768;2023-09-19T12:26:26;26.70;59.90
38265;DHT22;24062;47.480;8.768;2023-09-19T12:28:54;26.70;59.90
38265;DHT22;24062;47.480;8.768;2023-09-19T12:31:21;26.70;59.90
38265;DHT22;24062;47.480;8.768;2023-09-19T12:33:53;26.70;59.90
38265;DHT22;24062;47.480;8.768;2023-09-19T12:36:22;26.70;60.00
38265;DHT22;24062;47.480;8.768;2023-09-19T12:38:55;26.70;60.00
38265;DHT22;24062;47.480;8.768;2023-09-19T12:41:24;26.70;59.90
38265;DHT22;24062;47.480;8.768;2023-09-19T12:43:52;26.70;59.90
38265;DHT22;24062;47.480;8.768;2023-09-19T12:46:20;26.70;59.90
38265;DHT22;24062;47.480;8.768;2023-09-19T12:49:18;26.70;60.00
38265;DHT22;24062;47.480;8.768;2023-09-19T12:51:47;26.70;60.00
38265;DHT22;24062;47.480;8.768;2023-09-19T12:54:15;26.70;60.00
38265;DHT22;24062;47.480;8.768;2023-09-19T12:56:43;26.70;60.00
38265;DHT22;24062;47.480;8.768;2023-09-19T12:59:12;26.70;60.00
38265;DHT22;24062;47.480;8.768;2023-09-19T13:01:40;26.70;60.00
38265;DHT22;24062;47.480;8.768;2023-09-19T13:04:15;26.70;60.00
38265;DHT22;24062;47.480;8.768;2023-09-19T13:06:46;26.80;60.00
38265;DHT22;24062;47.480;8.768;2023-09-19T13:09:15;26.80;60.00
38265;DHT22;24062;47.480;8.768;2023-09-19T13:11:43;26.80;60.00
38265;DHT22;24062;47.480;8.768;2023-09-19T13:14:17;26.80;60.00
38265;DHT22;24062;47.480;8.768;2023-09-19T13:16:55;26.90;60.00
38265;DHT22;24062;47.480;8.768;2023-09-19T13:19:35;26.80;60.00
38265;DHT22;24062;47.480;8.768;2023-09-19T13:22:04;26.80;60.00
38265;DHT22;24062;47.480;8.768;2023-09-19T13:24:34;26.80;60.80
38265;DHT22;24062;47.480;8.768;2023-09-19T13:27:05;26.80;60.00
38265;DHT22;24062;47.480;8.768;2023-09-19T13:29:33;26.80;60.00
38265;DHT22;24062;47.480;8.768;2023-09-19T13:32:01;26.80;60.10
38265;DHT22;24062;47.480;8.768;2023-09-19T13:34:29;26.80;60.00
38265;DHT22;24062;47.480;8.768;2023-09-19T13:36:57;26.90;60.00
38265;DHT22;24062;47.480;8.768;2023-09-19T13:39:26;26.90;60.00
38265;DHT22;24062;47.480;8.768;2023-09-19T13:41:53;26.90;60.00
38265;DHT22;24062;47.480;8.768;2023-09-19T13:44:20;27.00;60.00
38265;DHT22;24062;47.480;8.768;2023-09-19T13:46:47;27.00;60.00
38265;DHT22;24062;47.480;8.768;2023-09-19T13:49:14;27.00;60.00
38265;DHT22;24062;47.480;8.768;2023-09-19T13:51:41;27.00;59.90
38265;DHT22;24062;47.480;8.768;2023-09-19T13:54:09;27.00;59.90
38265;DHT22;24062;47.480;8.768;2023-09-19T13:56:38;27.00;59.80
38265;DHT22;24062;47.480;8.768;2023-09-19T13:59:05;27.00;59.80
38265;DHT22;24062;47.480;8.768;2023-09-19T14:01:32;27.10;59.80
38265;DHT22;24062;47.480;8.768;2023-09-19T14:03:59;27.00;59.70
38265;DHT22;24062;47.480;8.768;2023-09-19T14:06:26;27.00;59.80
38265;DHT22;24062;47.480;8.768;2023-09-19T14:08:53;27.00;59.80
38265;DHT22;24062;47.480;8.768;2023-09-19T14:11:20;27.10;59.80
38265;DHT22;24062;47.480;8.768;2023-09-19T14:13:49;27.10;59.80
38265;DHT22;24062;47.480;8.768;2023-09-19T14:16:17;27.10;59.70
38265;DHT22;24062;47.480;8.768;2023-09-19T14:18:45;27.20;59.70
38265;DHT22;24062;47.480;8.768;2023-09-19T14:21:12;27.20;59.70
38265;DHT22;24062;47.480;8.768;2023-09-19T14:23:40;27.20;59.60
38265;DHT22;24062;47.480;8.768;2023-09-19T14:26:08;27.20;59.60
38265;DHT22;24062;47.480;8.768;2023-09-19T14:28:36;27.20;59.60
38265;DHT22;24062;47.480;8.768;2023-09-19T14:31:06;27.20;59.60
38265;DHT22;24062;47.480;8.768;2023-09-19T14:33:33;27.20;59.60
38265;DHT22;24062;47.480;8.768;2023-09-19T14:36:03;27.20;59.50
38265;DHT22;24062;47.480;8.768;2023-09-19T14:38:32;27.30;60.20
38265;DHT22;24062;47.480;8.768;2023-09-19T14:41:00;27.30;59.50
38265;DHT22;24062;47.480;8.768;2023-09-19T14:43:28;27.20;59.40
38265;DHT22;24062;47.480;8.768;2023-09-19T14:45:55;27.30;59.50
38265;DHT22;24062;47.480;8.768;2023-09-19T14:48:25;27.40;59.40
38265;DHT22;24062;47.480;8.768;2023-09-19T14:50:52;27.40;59.40
38265;DHT22;24062;47.480;8.768;2023-09-19T14:53:20;27.40;59.30
38265;DHT22;24062;47.480;8.768;2023-09-19T14:55:47;27.40;59.30
38265;DHT22;24062;47.480;8.768;2023-09-19T14:58:17;27.40;59.20
38265;DHT22;24062;47.480;8.768;2023-09-19T15:00:45;27.40;59.20
38265;DHT22;24062;47.480;8.768;2023-09-19T15:03:12;27.50;59.20
38265;DHT22;24062;47.480;8.768;2023-09-19T15:05:40;27.50;59.30
38265;DHT22;24062;47.480;8.768;2023-09-19T15:08:07;27.50;59.30
38265;DHT22;24062;47.480;8.768;2023-09-19T15:10:34;27.40;59.70
38265;DHT22;24062;47.480;8.768;2023-09-19T15:13:01;27.40;59.20
38265;DHT22;24062;47.480;8.768;2023-09-19T15:15:28;27.50;59.20
38265;DHT22;24062;47.480;8.768;2023-09-19T15:17:57;27.50;59.10
38265;DHT22;24062;47.480;8.768;2023-09-19T15:20:24;27.50;59.20
38265;DHT22;24062;47.480;8.768;2023-09-19T15:22:53;27.50;59.10
38265;DHT22;24062;47.480;8.768;2023-09-19T15:25:20;27.60;59.10
38265;DHT22;24062;47.480;8.768;2023-09-19T15:27:47;27.60;59.10
38265;DHT22;24062;47.480;8.768;2023-09-19T15:30:15;27.70;59.00
38265;DHT22;24062;47.480;8.768;2023-09-19T15:32:42;27.70;59.00
38265;DHT22;24062;47.480;8.768;2023-09-19T15:35:09;27.70;58.90
38265;DHT22;24062;47.480;8.768;2023-09-19T15:37:38;27.70;58.80
38265;DHT22;24062;47.480;8.768;2023-09-19T15:40:07;27.80;58.80
38265;DHT22;24062;47.480;8.768;2023-09-19T15:42:36;27.80;58.60
38265;DHT22;24062;47.480;8.768;2023-09-19T15:45:04;27.80;58.60
38265;DHT22;24062;47.480;8.768;2023-09-19T15:47:35;27.80;58.60
38265;DHT22;24062;47.480;8.768;2023-09-19T15:50:03;27.80;58.60
38265;DHT22;24062;47.480;8.768;2023-09-19T15:52:30;27.90;58.60
38265;DHT22;24062;47.480;8.768;2023-09-19T15:54:57;27.80;58.40
38265;DHT22;24062;47.480;8.768;2023-09-19T15:57:25;27.80;58.40
38265;DHT22;24062;47.480;8.768;2023-09-19T15:59:54;27.90;58.50